sensor_id;sensor_type;location;lat;lon;timestamp;pressure;altitude;pressure_sealevel;temperature;humidity
51460;BME280;37534;39.772;2.718;2022-11-20T00:00:03;101212.63;;;11.18;100.00
51460;BME280;37534;39.772;2.718;2022-11-20T00:02:29;101223.78;;;11.18;100.00
51460;BME280;37534;39.772;2.718;2022-11-20T00:04:54;101230.59;;;11.22;100.00
51460;BME280;37534;39.772;2.718;2022-11-20T00:07:20;101220.44;;;11.13;100.00
51460;BME280;37534;39.772;2.718;2022-11-20T00:09:45;101206.66;;;11.14;100.00
51460;BME280;37534;39.772;2.718;2022-11-20T00:12:11;101217.56;;;11.29;100.00
51460;BME280;37534;39.772;2.718;2022-11-20T00:14:36;101212.59;;;11.19;100.00
51460;BME280;37534;39.772;2.718;2022-11-20T00:17:02;101221.84;;;11.30;100.00
51460;BME280;37534;39.772;2.718;2022-11-20T00:19:27;101210.00;;;11.19;100.00
51460;BME280;37534;39.772;2.718;2022-11-20T00:21:53;101219.59;;;11.14;100.00
51460;BME280;37534;39.772;2.718;2022-11-20T00:24:20;101205.00;;;11.10;100.00
51460;BME280;37534;39.772;2.718;2022-11-20T00:26:46;101214.94;;;11.32;100.00
51460;BME280;37534;39.772;2.718;2022-11-20T00:29:12;101220.72;;;11.43;100.00
51460;BME280;37534;39.772;2.718;2022-11-20T00:31:37;101218.28;;;11.35;100.00
51460;BME280;37534;39.772;2.718;2022-11-20T00:34:03;101228.72;;;11.31;100.00
51460;BME280;37534;39.772;2.718;2022-11-20T00:36:32;101214.16;;;11.28;100.00
51460;BME280;37534;39.772;2.718;2022-11-20T00:38:58;101213.16;;;11.34;100.00
51460;BME280;37534;39.772;2.718;2022-11-20T00:41:25;101227.09;;;11.27;100.00
51460;BME280;37534;39.772;2.718;2022-11-20T00:43:53;101234.09;;;11.20;100.00
51460;BME280;37534;39.772;2.718;2022-11-20T00:46:21;101219.53;;;11.17;100.00
51460;BME280;37534;39.772;2.718;2022-11-20T00:48:47;101219.56;;;11.16;100.00
51460;BME280;37534;39.772;2.718;2022-11-20T00:51:15;101218.56;;;11.23;100.00
51460;BME280;37534;39.772;2.718;2022-11-20T00:53:41;101220.09;;;11.32;100.00
51460;BME280;37534;39.772;2.718;2022-11-20T00:56:10;101229.53;;;11.33;100.00
51460;BME280;37534;39.772;2.718;2022-11-20T00:58:38;101226.13;;;11.31;100.00
51460;BME280;37534;39.772;2.718;2022-11-20T01:03:45;101234.03;;;11.25;100.00
51460;BME280;37534;39.772;2.718;2022-11-20T01:06:17;101230.59;;;11.22;100.00
51460;BME280;37534;39.772;2.718;2022-11-20T01:08:43;101221.78;;;11.33;100.00
51460;BME280;37534;39.772;2.718;2022-11-20T01:11:14;101225.44;;;11.22;100.00
51460;BME280;37534;39.772;2.718;2022-11-20T01:13:41;101233.28;;;11.18;100.00
51460;BME280;37534;39.772;2.718;2022-11-20T01:18:38;101230.59;;;11.22;100.00
51460;BME280;37534;39.772;2.718;2022-11-20T01:21:12;101227.13;;;11.23;100.00
51460;BME280;37534;39.772;2.718;2022-11-20T01:23:41;101237.34;;;11.30;100.00
51460;BME280;37534;39.772;2.718;2022-11-20T01:26:29;101231.47;;;11.23;100.00
51460;BME280;37534;39.772;2.718;2022-11-20T01:28:54;101236.47;;;11.31;100.00
51460;BME280;37534;39.772;2.718;2022-11-20T01:31:32;101239.03;;;11.31;100.00
51460;BME280;37534;39.772;2.718;2022-11-20T01:34:00;101235.94;;;11.13;100.00
51460;BME280;37534;39.772;2.718;2022-11-20T01:36:29;101237.91;;;11.02;100.00
51460;BME280;37534;39.772;2.718;2022-11-20T01:39:00;101242.16;;;11.03;100.00
51460;BME280;37534;39.772;2.718;2022-11-20T01:41:28;101240.47;;;11.02;100.00
51460;BME280;37534;39.772;2.718;2022-11-20T01:44:15;101238.78;;;11.01;100.00
51460;BME280;37534;39.772;2.718;2022-11-20T01:47:03;101248.22;;;11.02;100.00
51460;BME280;37534;39.772;2.718;2022-11-20T01:50:22;101240.53;;;10.99;100.00
51460;BME280;37534;39.772;2.718;2022-11-20T01:52:26;101237.78;;;11.08;100.00
51460;BME280;37534;39.772;2.718;2022-11-20T01:55:15;101248.19;;;11.05;100.00
51460;BME280;37534;39.772;2.718;2022-11-20T01:57:44;101258.50;;;11.05;100.00
51460;BME280;37534;39.772;2.718;2022-11-20T02:00:13;101245.69;;;10.99;100.00
51460;BME280;37534;39.772;2.718;2022-11-20T02:02:43;101254.25;;;11.01;100.00
51460;BME280;37534;39.772;2.718;2022-11-20T02:05:23;101261.00;;;11.08;100.00
51460;BME280;37534;39.772;2.718;2022-11-20T02:07:50;101257.44;;;11.14;100.00
51460;BME280;37534;39.772;2.718;2022-11-20T02:10:18;101248.84;;;11.13;100.00
51460;BME280;37534;39.772;2.718;2022-11-20T02:12:43;101260.91;;;11.14;100.00
51460;BME280;37534;39.772;2.718;2022-11-20T02:15:27;101252.91;;;11.27;100.00
51460;BME280;37534;39.772;2.718;2022-11-20T02:17:53;101264.94;;;11.28;100.00
51460;BME280;37534;39.772;2.718;2022-11-20T02:20:19;101266.69;;;11.26;100.00
51460;BME280;37534;39.772;2.718;2022-11-20T02:23:03;101263.94;;;11.33;100.00
51460;BME280;37534;39.772;2.718;2022-11-20T02:25:30;101279.72;;;11.21;100.00
51460;BME280;37534;39.772;2.718;2022-11-20T02:27:58;101270.28;;;11.18;100.00
51460;BME280;37534;39.772;2.718;2022-11-20T02:30:23;101282.22;;;11.24;100.00
51460;BME280;37534;39.772;2.718;2022-11-20T02:32:51;101275.53;;;11.14;100.00
51460;BME280;37534;39.772;2.718;2022-11-20T02:37:51;101278.94;;;11.17;100.00
51460;BME280;37534;39.772;2.718;2022-11-20T02:40:18;101275.34;;;11.25;100.00
51460;BME280;37534;39.772;2.718;2022-11-20T02:42:44;101274.44;;;11.26;100.00
51460;BME280;37534;39.772;2.718;2022-11-20T02:45:10;101281.38;;;11.23;100.00
51460;BME280;37534;39.772;2.718;2022-11-20T02:47:36;101274.34;;;11.32;100.00
51460;BME280;37534;39.772;2.718;2022-11-20T02:50:03;101274.34;;;11.32;100.00
51460;BME280;37534;39.772;2.718;2022-11-20T02:52:29;101271.75;;;11.32;100.00
51460;BME280;37534;39.772;2.718;2022-11-20T02:54:55;101275.19;;;11.32;100.00
51460;BME280;37534;39.772;2.718;2022-11-20T02:57:21;101272.59;;;11.32;100.00
51460;BME280;37534;39.772;2.718;2022-11-20T02:59:46;101269.50;;;11.15;100.00
51460;BME280;37534;39.772;2.718;2022-11-20T03:02:12;101279.88;;;11.12;100.00
51460;BME280;37534;39.772;2.718;2022-11-20T03:04:37;101272.28;;;11.04;100.00
51460;BME280;37534;39.772;2.718;2022-11-20T03:07:03;101278.94;;;11.17;100.00
51460;BME280;37534;39.772;2.718;2022-11-20T03:09:29;101265.41;;;11.03;100.00
51460;BME280;37534;39.772;2.718;2022-11-20T03:11:55;101271.50;;;11.00;100.00
51460;BME280;37534;39.772;2.718;2022-11-20T03:14:20;101273.00;;;11.12;100.00
51460;BME280;37534;39.772;2.718;2022-11-20T03:16:46;101282.47;;;11.10;100.00
51460;BME280;37534;39.772;2.718;2022-11-20T03:19:12;101273.91;;;11.08;100.00
51460;BME280;37534;39.772;2.718;2022-11-20T03:21:38;101279.16;;;11.05;100.00
51460;BME280;37534;39.772;2.718;2022-11-20T03:24:04;101292.94;;;11.04;100.00
51460;BME280;37534;39.772;2.718;2022-11-20T03:26:29;101295.53;;;11.04;100.00
51460;BME280;37534;39.772;2.718;2022-11-20T03:28:57;101283.41;;;11.08;100.00
51460;BME280;37534;39.772;2.718;2022-11-20T03:31:26;101288.56;;;11.08;100.00
51460;BME280;37534;39.772;2.718;2022-11-20T03:33:52;101279.97;;;11.09;100.00
51460;BME280;37534;39.772;2.718;2022-11-20T03:36:19;101270.41;;;11.12;100.00
51460;BME280;37534;39.772;2.718;2022-11-20T03:38:45;101282.63;;;11.04;100.00
51460;BME280;37534;39.772;2.718;2022-11-20T03:41:19;101287.56;;;11.15;100.00
51460;BME280;37534;39.772;2.718;2022-11-20T03:44:05;101280.78;;;11.11;100.00
51460;BME280;37534;39.772;2.718;2022-11-20T03:46:31;101288.75;;;10.98;100.00
51460;BME280;37534;39.772;2.718;2022-11-20T03:48:57;101289.50;;;11.05;100.00
51460;BME280;37534;39.772;2.718;2022-11-20T03:51:25;101295.69;;;10.95;100.00
51460;BME280;37534;39.772;2.718;2022-11-20T03:53:53;101295.78;;;10.89;100.00
51460;BME280;37534;39.772;2.718;2022-11-20T03:56:22;101299.88;;;11.02;100.00
51460;BME280;37534;39.772;2.718;2022-11-20T03:58:48;101312.06;;;10.94;100.00
51460;BME280;37534;39.772;2.718;2022-11-20T04:01:21;101311.31;;;10.87;100.00
51460;BME280;37534;39.772;2.718;2022-11-20T04:03:48;101308.88;;;10.79;100.00
51460;BME280;37534;39.772;2.718;2022-11-20T04:06:28;101306.44;;;10.72;100.00
51460;BME280;37534;39.772;2.718;2022-11-20T04:08:55;101317.56;;;10.75;100.00
51460;BME280;37534;39.772;2.718;2022-11-20T04:11:26;101311.69;;;10.64;100.00
51460;BME280;37534;39.772;2.718;2022-11-20T04:13:55;101324.53;;;10.70;100.00
51460;BME280;37534;39.772;2.718;2022-11-20T04:16:22;101324.41;;;10.76;100.00
51460;BME280;37534;39.772;2.718;2022-11-20T04:18:52;101318.44;;;10.73;100.00
51460;BME280;37534;39.772;2.718;2022-11-20T04:21:18;101314.94;;;10.78;100.00
51460;BME280;37534;39.772;2.718;2022-11-20T04:23:43;101326.06;;;10.80;100.00
51460;BME280;37534;39.772;2.718;2022-11-20T04:26:11;101323.56;;;10.74;100.00
51460;BME280;37534;39.772;2.718;2022-11-20T04:28:37;101331.28;;;10.77;100.00
51460;BME280;37534;39.772;2.718;2022-11-20T04:31:08;101325.78;;;10.96;100.00
51460;BME280;37534;39.772;2.718;2022-11-20T04:33:35;101337.03;;;10.93;100.00
51460;BME280;37534;39.772;2.718;2022-11-20T04:36:06;101330.31;;;10.83;100.00
51460;BME280;37534;39.772;2.718;2022-11-20T04:38:33;101338.66;;;10.99;100.00
51460;BME280;37534;39.772;2.718;2022-11-20T04:41:00;101334.47;;;10.92;100.00
51460;BME280;37534;39.772;2.718;2022-11-20T04:43:26;101348.16;;;10.97;100.00
51460;BME280;37534;39.772;2.718;2022-11-20T04:45:53;101344.63;;;11.01;100.00
51460;BME280;37534;39.772;2.718;2022-11-20T04:48:21;101340.25;;;11.06;100.00
51460;BME280;37534;39.772;2.718;2022-11-20T04:50:46;101354.09;;;11.02;100.00
51460;BME280;37534;39.772;2.718;2022-11-20T04:53:12;101354.06;;;11.03;100.00
51460;BME280;37534;39.772;2.718;2022-11-20T04:55:37;101356.69;;;11.02;100.00
51460;BME280;37534;39.772;2.718;2022-11-20T04:58:03;101358.44;;;11.00;100.00
51460;BME280;37534;39.772;2.718;2022-11-20T05:00:28;101367.06;;;10.99;100.00
51460;BME280;37534;39.772;2.718;2022-11-20T05:02:54;101363.66;;;10.97;100.00
51460;BME280;37534;39.772;2.718;2022-11-20T05:05:19;101363.59;;;11.01;100.00
51460;BME280;37534;39.772;2.718;2022-11-20T05:07:45;101368.59;;;11.09;100.00
51460;BME280;37534;39.772;2.718;2022-11-20T05:10:11;101366.97;;;11.05;100.00
51460;BME280;37534;39.772;2.718;2022-11-20T05:12:36;101370.34;;;11.09;100.00
51460;BME280;37534;39.772;2.718;2022-11-20T05:15:02;101373.59;;;11.18;100.00
51460;BME280;37534;39.772;2.718;2022-11-20T05:17:27;101383.09;;;11.18;100.00
51460;BME280;37534;39.772;2.718;2022-11-20T05:19:53;101379.69;;;11.16;100.00
51460;BME280;37534;39.772;2.718;2022-11-20T05:22:18;101383.28;;;11.06;100.00
51460;BME280;37534;39.772;2.718;2022-11-20T05:24:44;101396.03;;;11.16;100.00
51460;BME280;37534;39.772;2.718;2022-11-20T05:27:09;101392.44;;;11.23;100.00
51460;BME280;37534;39.772;2.718;2022-11-20T05:29:35;101399.38;;;11.21;100.00
51460;BME280;37534;39.772;2.718;2022-11-20T05:32:00;101397.75;;;11.16;100.00
51460;BME280;37534;39.772;2.718;2022-11-20T05:34:26;101397.00;;;11.09;100.00
51460;BME280;37534;39.772;2.718;2022-11-20T05:36:51;101408.00;;;11.20;100.00
51460;BME280;37534;39.772;2.718;2022-11-20T05:39:17;101406.13;;;11.29;100.00
51460;BME280;37534;39.772;2.718;2022-11-20T05:41:42;101406.13;;;11.29;100.00
51460;BME280;37534;39.772;2.718;2022-11-20T05:44:10;101408.00;;;11.20;100.00
51460;BME280;37534;39.772;2.718;2022-11-20T05:46:36;101404.50;;;11.25;100.00
51460;BME280;37534;39.772;2.718;2022-11-20T05:49:01;101410.38;;;11.31;100.00
51460;BME280;37534;39.772;2.718;2022-11-20T05:51:27;101420.66;;;11.36;100.00
51460;BME280;37534;39.772;2.718;2022-11-20T05:53:53;101413.13;;;11.23;100.00
51460;BME280;37534;39.772;2.718;2022-11-20T05:56:21;101421.72;;;11.22;100.00
51460;BME280;37534;39.772;2.718;2022-11-20T05:58:47;101419.13;;;11.24;100.00
51460;BME280;37534;39.772;2.718;2022-11-20T06:01:17;101432.75;;;11.34;100.00
51460;BME280;37534;39.772;2.718;2022-11-20T06:03:42;101438.03;;;11.26;100.00
51460;BME280;37534;39.772;2.718;2022-11-20T06:06:11;101427.97;;;11.11;100.00
51460;BME280;37534;39.772;2.718;2022-11-20T06:08:37;101425.38;;;11.12;100.00
51460;BME280;37534;39.772;2.718;2022-11-20T06:11:04;101436.56;;;11.11;100.00
51460;BME280;37534;39.772;2.718;2022-11-20T06:13:30;101432.13;;;11.19;100.00
51460;BME280;37534;39.772;2.718;2022-11-20T06:15:55;101434.78;;;11.15;100.00
51460;BME280;37534;39.772;2.718;2022-11-20T06:18:21;101432.19;;;11.16;100.00
51460;BME280;37534;39.772;2.718;2022-11-20T06:20:46;101435.75;;;11.09;100.00
51460;BME280;37534;39.772;2.718;2022-11-20T06:23:12;101442.75;;;11.01;100.00
51460;BME280;37534;39.772;2.718;2022-11-20T06:25:39;101445.34;;;11.01;100.00
51460;BME280;37534;39.772;2.718;2022-11-20T06:28:05;101446.94;;;11.08;100.00
51460;BME280;37534;39.772;2.718;2022-11-20T06:30:31;101444.31;;;11.11;100.00
51460;BME280;37534;39.772;2.718;2022-11-20T06:32:56;101458.94;;;11.12;100.00
51460;BME280;37534;39.772;2.718;2022-11-20T06:35:22;101446.06;;;11.09;100.00
51460;BME280;37534;39.772;2.718;2022-11-20T06:37:47;101451.91;;;11.20;100.00
51460;BME280;37534;39.772;2.718;2022-11-20T06:40:13;101452.84;;;11.16;100.00
51460;BME280;37534;39.772;2.718;2022-11-20T06:42:38;101459.81;;;11.11;100.00
51460;BME280;37534;39.772;2.718;2022-11-20T06:45:04;101464.22;;;11.04;100.00
51460;BME280;37534;39.772;2.718;2022-11-20T06:47:30;101458.06;;;11.12;100.00
51460;BME280;37534;39.772;2.718;2022-11-20T06:49:55;101462.31;;;11.17;100.00
51460;BME280;37534;39.772;2.718;2022-11-20T06:52:21;101461.41;;;11.18;100.00
51460;BME280;37534;39.772;2.718;2022-11-20T06:54:46;101470.06;;;11.16;100.00
51460;BME280;37534;39.772;2.718;2022-11-20T06:57:12;101472.66;;;11.16;100.00
51460;BME280;37534;39.772;2.718;2022-11-20T06:59:37;101470.13;;;11.13;100.00
51460;BME280;37534;39.772;2.718;2022-11-20T07:02:03;101481.19;;;11.21;100.00
51460;BME280;37534;39.772;2.718;2022-11-20T07:04:28;101485.69;;;11.08;100.00
51460;BME280;37534;39.772;2.718;2022-11-20T07:06:54;101494.09;;;11.21;100.00
51460;BME280;37534;39.772;2.718;2022-11-20T07:09:19;101487.97;;;11.27;100.00
51460;BME280;37534;39.772;2.718;2022-11-20T07:11:45;101487.06;;;11.29;100.00
51460;BME280;37534;39.772;2.718;2022-11-20T07:14:10;101487.25;;;11.18;100.00
51460;BME280;37534;39.772;2.718;2022-11-20T07:16:36;101486.94;;;11.37;100.00
51460;BME280;37534;39.772;2.718;2022-11-20T07:19:02;101481.88;;;11.31;100.00
51460;BME280;37534;39.772;2.718;2022-11-20T07:21:27;101492.00;;;11.43;100.00
51460;BME280;37534;39.772;2.718;2022-11-20T07:23:53;101481.66;;;11.43;100.00
51460;BME280;37534;39.772;2.718;2022-11-20T07:26:18;101500.56;;;11.45;100.00
51460;BME280;37534;39.772;2.718;2022-11-20T07:28:45;101495.53;;;11.39;100.00
51460;BME280;37534;39.772;2.718;2022-11-20T07:31:10;101499.59;;;11.52;100.00
51460;BME280;37534;39.772;2.718;2022-11-20T07:33:37;101495.13;;;11.62;100.00
51460;BME280;37534;39.772;2.718;2022-11-20T07:36:03;101500.97;;;11.72;100.00
51460;BME280;37534;39.772;2.718;2022-11-20T07:38:29;101499.13;;;11.78;100.00
51460;BME280;37534;39.772;2.718;2022-11-20T07:40:55;101504.97;;;11.88;100.00
51460;BME280;37534;39.772;2.718;2022-11-20T07:43:23;101516.88;;;11.98;100.00
51460;BME280;37534;39.772;2.718;2022-11-20T07:45:48;101511.75;;;11.95;100.00
51460;BME280;37534;39.772;2.718;2022-11-20T07:48:14;101518.59;;;12.00;100.00
51460;BME280;37534;39.772;2.718;2022-11-20T07:50:39;101532.41;;;11.98;100.00
51460;BME280;37534;39.772;2.718;2022-11-20T07:53:05;101528.16;;;11.96;100.00
51460;BME280;37534;39.772;2.718;2022-11-20T07:55:31;101533.16;;;12.04;100.00
51460;BME280;37534;39.772;2.718;2022-11-20T07:57:57;101532.31;;;12.05;100.00
51460;BME280;37534;39.772;2.718;2022-11-20T08:00:23;101537.59;;;11.97;100.00
51460;BME280;37534;39.772;2.718;2022-11-20T08:02:48;101542.69;;;12.02;100.00
51460;BME280;37534;39.772;2.718;2022-11-20T08:05:14;101542.47;;;12.14;100.00
51460;BME280;37534;39.772;2.718;2022-11-20T08:07:41;101551.91;;;12.15;100.00
51460;BME280;37534;39.772;2.718;2022-11-20T08:10:09;101555.28;;;12.18;100.00
51460;BME280;37534;39.772;2.718;2022-11-20T08:12:35;101535.56;;;12.13;100.00
51460;BME280;37534;39.772;2.718;2022-11-20T08:15:20;101556.16;;;12.19;100.00
51460;BME280;37534;39.772;2.718;2022-11-20T08:17:45;101558.56;;;12.28;100.00
51460;BME280;37534;39.772;2.718;2022-11-20T08:20:11;101556.84;;;12.27;100.00
51460;BME280;37534;39.772;2.718;2022-11-20T08:22:36;101572.25;;;12.35;100.00
51460;BME280;37534;39.772;2.718;2022-11-20T08:25:02;101558.56;;;12.30;100.00
51460;BME280;37534;39.772;2.718;2022-11-20T08:27:28;101557.56;;;12.35;100.00
51460;BME280;37534;39.772;2.718;2022-11-20T08:29:53;101562.59;;;12.42;100.00
51460;BME280;37534;39.772;2.718;2022-11-20T08:32:19;101559.97;;;12.45;100.00
51460;BME280;37534;39.772;2.718;2022-11-20T08:34:44;101570.03;;;12.59;100.00
51460;BME280;37534;39.772;2.718;2022-11-20T08:37:11;101565.59;;;12.65;100.00
51460;BME280;37534;39.772;2.718;2022-11-20T08:39:36;101570.56;;;12.74;100.00
51460;BME280;37534;39.772;2.718;2022-11-20T08:42:06;101567.03;;;12.79;100.00
51460;BME280;37534;39.772;2.718;2022-11-20T08:44:32;101577.34;;;12.82;100.00
51460;BME280;37534;39.772;2.718;2022-11-20T08:46:57;101574.53;;;12.91;100.00
51460;BME280;37534;39.772;2.718;2022-11-20T08:49:23;101576.84;;;13.03;100.00
51460;BME280;37534;39.772;2.718;2022-11-20T08:51:48;101587.78;;;13.16;100.00
51460;BME280;37534;39.772;2.718;2022-11-20T08:54:16;101585.91;;;13.23;100.00
51460;BME280;37534;39.772;2.718;2022-11-20T08:56:45;101584.78;;;13.36;100.00
51460;BME280;37534;39.772;2.718;2022-11-20T08:59:10;101595.63;;;13.52;100.00
51460;BME280;37534;39.772;2.718;2022-11-20T09:01:36;101602.91;;;13.72;100.00
51460;BME280;37534;39.772;2.718;2022-11-20T09:04:01;101596.69;;;13.79;100.00
51460;BME280;37534;39.772;2.718;2022-11-20T09:06:28;101599.97;;;13.87;100.00
51460;BME280;37534;39.772;2.718;2022-11-20T09:08:54;101604.91;;;13.97;100.00
51460;BME280;37534;39.772;2.718;2022-11-20T09:11:20;101602.09;;;14.04;100.00
51460;BME280;37534;39.772;2.718;2022-11-20T09:13:46;101618.97;;;14.21;100.00
51460;BME280;37534;39.772;2.718;2022-11-20T09:16:11;101609.44;;;14.21;100.00
51460;BME280;37534;39.772;2.718;2022-11-20T09:18:37;101613.72;;;14.22;100.00
51460;BME280;37534;39.772;2.718;2022-11-20T09:21:06;101606.97;;;14.17;100.00
51460;BME280;37534;39.772;2.718;2022-11-20T09:23:34;101607.78;;;14.19;100.00
51460;BME280;37534;39.772;2.718;2022-11-20T09:26:06;101625.00;;;14.53;100.00
51460;BME280;37534;39.772;2.718;2022-11-20T09:28:32;101630.03;;;14.60;100.00
51460;BME280;37534;39.772;2.718;2022-11-20T09:30:58;101624.94;;;14.87;100.00
51460;BME280;37534;39.772;2.718;2022-11-20T09:33:24;101624.75;;;14.93;100.00
51460;BME280;37534;39.772;2.718;2022-11-20T09:35:50;101637.16;;;15.13;100.00
51460;BME280;37534;39.772;2.718;2022-11-20T09:38:15;101648.13;;;15.80;100.00
51460;BME280;37534;39.772;2.718;2022-11-20T09:40:46;101649.34;;;17.39;100.00
51460;BME280;37534;39.772;2.718;2022-11-20T09:46:05;101637.97;;;18.05;73.78
51460;BME280;37534;39.772;2.718;2022-11-20T09:48:36;101641.16;;;17.91;75.06
51460;BME280;37534;39.772;2.718;2022-11-20T09:51:27;101648.22;;;17.89;74.75
51460;BME280;37534;39.772;2.718;2022-11-20T09:54:00;101643.00;;;17.67;75.44
51460;BME280;37534;39.772;2.718;2022-11-20T09:56:28;101643.25;;;17.39;75.40
51460;BME280;37534;39.772;2.718;2022-11-20T09:58:57;101639.53;;;17.44;77.53
51460;BME280;37534;39.772;2.718;2022-11-20T10:01:29;101630.75;;;17.47;75.35
51460;BME280;37534;39.772;2.718;2022-11-20T10:04:08;101645.13;;;17.57;73.40
51460;BME280;37534;39.772;2.718;2022-11-20T10:09:35;101655.78;;;19.33;73.31
51460;BME280;37534;39.772;2.718;2022-11-20T10:14:56;101641.47;;;21.72;59.14
51460;BME280;37534;39.772;2.718;2022-11-20T10:17:48;101645.16;;;22.57;49.75
51460;BME280;37534;39.772;2.718;2022-11-20T10:23:41;101651.38;;;21.21;51.10
51460;BME280;37534;39.772;2.718;2022-11-20T10:26:55;101651.53;;;20.19;54.90
51460;BME280;37534;39.772;2.718;2022-11-20T10:29:34;101647.19;;;19.48;56.38
51460;BME280;37534;39.772;2.718;2022-11-20T10:32:03;101654.66;;;19.19;60.18
51460;BME280;37534;39.772;2.718;2022-11-20T10:34:45;101646.16;;;18.76;59.99
51460;BME280;37534;39.772;2.718;2022-11-20T10:37:25;101651.13;;;18.43;58.88
51460;BME280;37534;39.772;2.718;2022-11-20T10:43:12;101654.88;;;17.96;66.75
51460;BME280;37534;39.772;2.718;2022-11-20T10:46:03;101657.78;;;18.50;70.03
51460;BME280;37534;39.772;2.718;2022-11-20T10:48:31;101659.75;;;19.04;70.11
51460;BME280;37534;39.772;2.718;2022-11-20T10:51:07;101652.84;;;19.39;62.77
51460;BME280;37534;39.772;2.718;2022-11-20T11:02:19;101657.09;;;19.96;63.91
51460;BME280;37534;39.772;2.718;2022-11-20T11:04:48;101664.03;;;19.97;58.21
51460;BME280;37534;39.772;2.718;2022-11-20T11:09:47;101654.97;;;19.86;58.37
51460;BME280;37534;39.772;2.718;2022-11-20T11:12:13;101648.28;;;19.62;59.87
51460;BME280;37534;39.772;2.718;2022-11-20T11:14:51;101662.75;;;19.51;60.60
51460;BME280;37534;39.772;2.718;2022-11-20T11:22:23;101653.81;;;19.73;62.76
51460;BME280;37534;39.772;2.718;2022-11-20T11:24:52;101660.19;;;19.86;60.02
51460;BME280;37534;39.772;2.718;2022-11-20T11:27:18;101664.59;;;19.49;61.33
51460;BME280;37534;39.772;2.718;2022-11-20T11:29:44;101671.22;;;19.01;62.23
51460;BME280;37534;39.772;2.718;2022-11-20T11:32:20;101667.41;;;18.50;65.41
51460;BME280;37534;39.772;2.718;2022-11-20T11:35:26;101664.59;;;18.13;67.69
51460;BME280;37534;39.772;2.718;2022-11-20T11:38:00;101656.84;;;17.91;68.90
51460;BME280;37534;39.772;2.718;2022-11-20T11:40:30;101654.59;;;18.02;67.04
51460;BME280;37534;39.772;2.718;2022-11-20T11:42:59;101652.06;;;18.21;67.71
51460;BME280;37534;39.772;2.718;2022-11-20T11:45:27;101665.31;;;17.96;68.50
51460;BME280;37534;39.772;2.718;2022-11-20T11:47:55;101661.03;;;18.16;68.33
51460;BME280;37534;39.772;2.718;2022-11-20T11:50:24;101651.75;;;19.62;66.75
51460;BME280;37534;39.772;2.718;2022-11-20T11:53:09;101663.03;;;20.67;57.67
51460;BME280;37534;39.772;2.718;2022-11-20T11:56:06;101667.84;;;20.42;56.79
51460;BME280;37534;39.772;2.718;2022-11-20T11:58:47;101668.41;;;20.13;59.07
51460;BME280;37534;39.772;2.718;2022-11-20T12:01:37;101673.56;;;19.80;59.74
51460;BME280;37534;39.772;2.718;2022-11-20T12:06:53;101663.41;;;21.57;53.43
51460;BME280;37534;39.772;2.718;2022-11-20T12:09:24;101649.94;;;21.15;53.14
51460;BME280;37534;39.772;2.718;2022-11-20T12:14:42;101634.16;;;20.34;54.85
51460;BME280;37534;39.772;2.718;2022-11-20T12:17:11;101645.22;;;19.71;56.67
51460;BME280;37534;39.772;2.718;2022-11-20T12:19:37;101647.25;;;19.10;61.07
51460;BME280;37534;39.772;2.718;2022-11-20T12:22:27;101655.34;;;18.46;63.23
51460;BME280;37534;39.772;2.718;2022-11-20T12:25:26;101647.44;;;18.68;64.30
51460;BME280;37534;39.772;2.718;2022-11-20T12:30:31;101632.00;;;19.37;58.39
51460;BME280;37534;39.772;2.718;2022-11-20T12:35:39;101643.56;;;21.35;55.00
51460;BME280;37534;39.772;2.718;2022-11-20T12:49:52;101597.47;;;22.64;45.36
51460;BME280;37534;39.772;2.718;2022-11-20T13:00:40;101591.78;;;20.59;52.70
51460;BME280;37534;39.772;2.718;2022-11-20T13:08:37;101601.50;;;18.81;60.21
51460;BME280;37534;39.772;2.718;2022-11-20T13:16:49;101593.91;;;19.32;57.46
51460;BME280;37534;39.772;2.718;2022-11-20T13:19:17;101610.44;;;18.96;60.32
51460;BME280;37534;39.772;2.718;2022-11-20T13:21:48;101603.34;;;18.79;61.95
51460;BME280;37534;39.772;2.718;2022-11-20T13:26:46;101603.00;;;18.68;61.14
51460;BME280;37534;39.772;2.718;2022-11-20T13:29:16;101613.84;;;18.77;63.63
51460;BME280;37534;39.772;2.718;2022-11-20T13:31:45;101605.75;;;19.75;61.38
51460;BME280;37534;39.772;2.718;2022-11-20T13:34:24;101621.94;;;21.62;54.71
51460;BME280;37534;39.772;2.718;2022-11-20T13:36:53;101630.00;;;22.90;48.09
51460;BME280;37534;39.772;2.718;2022-11-20T13:39:36;101625.19;;;23.91;44.34
51460;BME280;37534;39.772;2.718;2022-11-20T13:42:26;101622.66;;;23.37;43.56
51460;BME280;37534;39.772;2.718;2022-11-20T13:45:01;101623.34;;;21.98;45.47
51460;BME280;37534;39.772;2.718;2022-11-20T13:47:35;101624.06;;;20.93;50.26
51460;BME280;37534;39.772;2.718;2022-11-20T13:50:04;101619.69;;;19.76;55.46
51460;BME280;37534;39.772;2.718;2022-11-20T13:56:11;101613.72;;;18.22;60.64
51460;BME280;37534;39.772;2.718;2022-11-20T13:58:59;101610.97;;;17.85;62.44
51460;BME280;37534;39.772;2.718;2022-11-20T14:01:30;101609.72;;;17.72;63.89
51460;BME280;37534;39.772;2.718;2022-11-20T14:03:57;101610.63;;;17.71;64.31
51460;BME280;37534;39.772;2.718;2022-11-20T14:06:27;101602.75;;;17.73;66.02
51460;BME280;37534;39.772;2.718;2022-11-20T14:08:54;101597.16;;;17.39;65.88
51460;BME280;37534;39.772;2.718;2022-11-20T14:11:30;101594.81;;;17.11;67.25
51460;BME280;37534;39.772;2.718;2022-11-20T14:16:27;101603.84;;;17.24;69.80
51460;BME280;37534;39.772;2.718;2022-11-20T14:18:54;101597.16;;;17.17;68.79
51460;BME280;37534;39.772;2.718;2022-11-20T14:21:24;101581.28;;;17.01;67.61